sensor_id;sensor_type;location;lat;lon;timestamp;P1;durP1;ratioP1;P2;durP2;ratioP2
53927;SDS011;39837;47.630;18.822;2023-01-05T00:02:37;4.70;;;4.30;;
53927;SDS011;39837;47.630;18.822;2023-01-05T00:05:22;6.55;;;5.18;;
53927;SDS011;39837;47.630;18.822;2023-01-05T00:08:06;8.93;;;4.43;;
53927;SDS011;39837;47.630;18.822;2023-01-05T00:10:50;12.77;;;4.10;;
53927;SDS011;39837;47.630;18.822;2023-01-05T00:13:53;5.40;;;4.90;;
53927;SDS011;39837;47.630;18.822;2023-01-05T00:16:55;4.88;;;4.47;;
53927;SDS011;39837;47.630;18.822;2023-01-05T00:19:58;5.50;;;4.97;;
53927;SDS011;39837;47.630;18.822;2023-01-05T00:23:02;4.35;;;4.05;;
53927;SDS011;39837;47.630;18.822;2023-01-05T00:25:46;6.45;;;4.25;;
53927;SDS011;39837;47.630;18.822;2023-01-05T00:28:30;5.63;;;5.13;;
53927;SDS011;39837;47.630;18.822;2023-01-05T00:31:14;5.35;;;4.85;;
53927;SDS011;39837;47.630;18.822;2023-01-05T00:33:58;6.82;;;5.28;;
53927;SDS011;39837;47.630;18.822;2023-01-05T00:36:43;7.32;;;4.78;;
53927;SDS011;39837;47.630;18.822;2023-01-05T00:39:27;6.40;;;5.15;;
53927;SDS011;39837;47.630;18.822;2023-01-05T00:42:11;8.88;;;4.93;;
53927;SDS011;39837;47.630;18.822;2023-01-05T00:44:55;7.53;;;5.35;;
53927;SDS011;39837;47.630;18.822;2023-01-05T00:47:39;5.68;;;5.13;;
53927;SDS011;39837;47.630;18.822;2023-01-05T00:50:23;5.93;;;5.43;;
53927;SDS011;39837;47.630;18.822;2023-01-05T00:53:07;4.97;;;4.18;;
53927;SDS011;39837;47.630;18.822;2023-01-05T00:55:55;5.93;;;4.90;;
53927;SDS011;39837;47.630;18.822;2023-01-05T00:58:40;4.72;;;4.28;;
53927;SDS011;39837;47.630;18.822;2023-01-05T01:01:24;6.30;;;5.63;;
53927;SDS011;39837;47.630;18.822;2023-01-05T01:04:08;4.65;;;4.35;;
53927;SDS011;39837;47.630;18.822;2023-01-05T01:06:52;13.35;;;4.32;;
53927;SDS011;39837;47.630;18.822;2023-01-05T01:09:37;6.10;;;4.82;;
53927;SDS011;39837;47.630;18.822;2023-01-05T01:12:23;6.07;;;5.57;;
53927;SDS011;39837;47.630;18.822;2023-01-05T01:15:07;6.72;;;5.80;;
53927;SDS011;39837;47.630;18.822;2023-01-05T01:17:52;5.00;;;4.63;;
53927;SDS011;39837;47.630;18.822;2023-01-05T01:20:36;8.40;;;4.55;;
53927;SDS011;39837;47.630;18.822;2023-01-05T01:23:20;5.05;;;4.57;;
53927;SDS011;39837;47.630;18.822;2023-01-05T01:26:05;5.22;;;4.63;;
53927;SDS011;39837;47.630;18.822;2023-01-05T01:31:34;4.28;;;3.95;;
53927;SDS011;39837;47.630;18.822;2023-01-05T01:34:20;5.75;;;4.78;;
53927;SDS011;39837;47.630;18.822;2023-01-05T01:37:04;4.75;;;4.32;;
53927;SDS011;39837;47.630;18.822;2023-01-05T01:39:48;5.63;;;5.13;;
53927;SDS011;39837;47.630;18.822;2023-01-05T01:42:32;6.63;;;5.20;;
53927;SDS011;39837;47.630;18.822;2023-01-05T01:45:20;13.77;;;5.13;;
53927;SDS011;39837;47.630;18.822;2023-01-05T01:48:06;5.40;;;5.00;;
53927;SDS011;39837;47.630;18.822;2023-01-05T01:50:53;4.57;;;4.18;;
53927;SDS011;39837;47.630;18.822;2023-01-05T01:53:39;5.32;;;4.85;;
53927;SDS011;39837;47.630;18.822;2023-01-05T01:56:26;8.23;;;5.57;;
53927;SDS011;39837;47.630;18.822;2023-01-05T01:59:13;6.07;;;5.47;;
53927;SDS011;39837;47.630;18.822;2023-01-05T02:01:58;6.97;;;4.25;;
53927;SDS011;39837;47.630;18.822;2023-01-05T02:04:42;4.85;;;4.53;;
53927;SDS011;39837;47.630;18.822;2023-01-05T02:07:28;5.05;;;4.65;;
53927;SDS011;39837;47.630;18.822;2023-01-05T02:10:17;4.65;;;4.28;;
53927;SDS011;39837;47.630;18.822;2023-01-05T02:27:46;4.68;;;3.90;;
53927;SDS011;39837;47.630;18.822;2023-01-05T02:36:16;5.55;;;5.13;;
53927;SDS011;39837;47.630;18.822;2023-01-05T02:39:13;4.55;;;4.15;;
53927;SDS011;39837;47.630;18.822;2023-01-05T02:44:43;5.13;;;4.72;;
53927;SDS011;39837;47.630;18.822;2023-01-05T02:50:16;5.13;;;4.63;;
53927;SDS011;39837;47.630;18.822;2023-01-05T02:53:08;5.32;;;4.30;;
53927;SDS011;39837;47.630;18.822;2023-01-05T02:55:59;3.50;;;3.30;;
53927;SDS011;39837;47.630;18.822;2023-01-05T02:58:50;4.50;;;4.10;;
53927;SDS011;39837;47.630;18.822;2023-01-05T03:01:56;4.78;;;4.38;;
53927;SDS011;39837;47.630;18.822;2023-01-05T03:04:46;6.28;;;4.93;;
53927;SDS011;39837;47.630;18.822;2023-01-05T03:07:34;6.57;;;4.20;;
53927;SDS011;39837;47.630;18.822;2023-01-05T03:10:20;6.82;;;4.70;;
53927;SDS011;39837;47.630;18.822;2023-01-05T03:13:23;12.63;;;5.07;;
53927;SDS011;39837;47.630;18.822;2023-01-05T03:16:25;4.30;;;4.00;;
53927;SDS011;39837;47.630;18.822;2023-01-05T03:19:11;3.53;;;3.22;;
53927;SDS011;39837;47.630;18.822;2023-01-05T03:22:16;4.57;;;4.18;;
53927;SDS011;39837;47.630;18.822;2023-01-05T03:25:23;4.90;;;4.40;;
53927;SDS011;39837;47.630;18.822;2023-01-05T03:32:01;5.63;;;5.00;;
53927;SDS011;39837;47.630;18.822;2023-01-05T03:35:09;4.47;;;3.92;;
53927;SDS011;39837;47.630;18.822;2023-01-05T03:38:16;4.28;;;3.85;;
53927;SDS011;39837;47.630;18.822;2023-01-05T03:41:04;5.47;;;4.00;;
53927;SDS011;39837;47.630;18.822;2023-01-05T03:43:52;4.05;;;3.70;;
53927;SDS011;39837;47.630;18.822;2023-01-05T03:46:37;4.85;;;4.43;;
53927;SDS011;39837;47.630;18.822;2023-01-05T03:49:21;6.63;;;4.32;;
53927;SDS011;39837;47.630;18.822;2023-01-05T03:52:06;4.50;;;4.15;;
53927;SDS011;39837;47.630;18.822;2023-01-05T03:54:49;4.72;;;4.18;;
53927;SDS011;39837;47.630;18.822;2023-01-05T03:57:34;5.57;;;4.32;;
53927;SDS011;39837;47.630;18.822;2023-01-05T04:00:18;3.58;;;3.28;;
53927;SDS011;39837;47.630;18.822;2023-01-05T04:03:03;3.15;;;2.85;;
53927;SDS011;39837;47.630;18.822;2023-01-05T04:05:47;3.65;;;3.15;;
53927;SDS011;39837;47.630;18.822;2023-01-05T04:08:32;4.07;;;3.67;;
53927;SDS011;39837;47.630;18.822;2023-01-05T04:11:16;4.82;;;3.80;;
53927;SDS011;39837;47.630;18.822;2023-01-05T04:14:01;3.53;;;2.42;;
53927;SDS011;39837;47.630;18.822;2023-01-05T04:16:45;2.88;;;2.72;;
53927;SDS011;39837;47.630;18.822;2023-01-05T04:19:29;6.00;;;4.13;;
53927;SDS011;39837;47.630;18.822;2023-01-05T04:22:13;2.83;;;2.58;;
53927;SDS011;39837;47.630;18.822;2023-01-05T04:24:57;3.00;;;2.80;;
53927;SDS011;39837;47.630;18.822;2023-01-05T04:27:41;3.60;;;3.33;;
53927;SDS011;39837;47.630;18.822;2023-01-05T04:30:25;3.50;;;2.53;;
53927;SDS011;39837;47.630;18.822;2023-01-05T04:33:09;3.15;;;2.88;;
53927;SDS011;39837;47.630;18.822;2023-01-05T04:35:54;3.88;;;3.58;;
53927;SDS011;39837;47.630;18.822;2023-01-05T04:38:37;4.50;;;3.05;;
53927;SDS011;39837;47.630;18.822;2023-01-05T04:41:22;2.35;;;2.25;;
53927;SDS011;39837;47.630;18.822;2023-01-05T04:44:08;2.67;;;2.58;;
53927;SDS011;39837;47.630;18.822;2023-01-05T04:46:52;10.80;;;9.27;;
53927;SDS011;39837;47.630;18.822;2023-01-05T04:49:36;16.83;;;11.48;;
53927;SDS011;39837;47.630;18.822;2023-01-05T04:52:20;12.18;;;8.98;;
53927;SDS011;39837;47.630;18.822;2023-01-05T04:55:04;5.75;;;5.25;;
53927;SDS011;39837;47.630;18.822;2023-01-05T04:57:49;4.10;;;3.75;;
53927;SDS011;39837;47.630;18.822;2023-01-05T05:00:33;3.97;;;3.67;;
53927;SDS011;39837;47.630;18.822;2023-01-05T05:03:18;4.63;;;4.22;;
53927;SDS011;39837;47.630;18.822;2023-01-05T05:06:02;9.00;;;2.88;;
53927;SDS011;39837;47.630;18.822;2023-01-05T05:08:46;3.88;;;3.58;;
53927;SDS011;39837;47.630;18.822;2023-01-05T05:11:30;3.55;;;3.25;;
53927;SDS011;39837;47.630;18.822;2023-01-05T05:14:14;5.05;;;4.55;;
53927;SDS011;39837;47.630;18.822;2023-01-05T05:16:59;4.22;;;3.95;;
53927;SDS011;39837;47.630;18.822;2023-01-05T05:19:43;4.28;;;3.95;;
53927;SDS011;39837;47.630;18.822;2023-01-05T05:22:27;5.40;;;4.78;;
53927;SDS011;39837;47.630;18.822;2023-01-05T05:25:11;5.10;;;4.47;;
53927;SDS011;39837;47.630;18.822;2023-01-05T05:27:55;5.93;;;3.95;;
53927;SDS011;39837;47.630;18.822;2023-01-05T05:30:39;3.70;;;3.28;;
53927;SDS011;39837;47.630;18.822;2023-01-05T05:33:24;4.25;;;3.65;;
53927;SDS011;39837;47.630;18.822;2023-01-05T05:36:08;3.80;;;3.60;;
53927;SDS011;39837;47.630;18.822;2023-01-05T05:38:52;2.92;;;2.75;;
53927;SDS011;39837;47.630;18.822;2023-01-05T05:41:37;4.38;;;4.07;;
53927;SDS011;39837;47.630;18.822;2023-01-05T05:44:21;7.30;;;4.38;;
53927;SDS011;39837;47.630;18.822;2023-01-05T05:47:05;3.22;;;3.00;;
53927;SDS011;39837;47.630;18.822;2023-01-05T05:49:49;3.25;;;3.05;;
53927;SDS011;39837;47.630;18.822;2023-01-05T05:52:33;3.08;;;2.88;;
53927;SDS011;39837;47.630;18.822;2023-01-05T05:55:17;3.60;;;3.30;;
53927;SDS011;39837;47.630;18.822;2023-01-05T05:58:01;3.78;;;2.85;;
53927;SDS011;39837;47.630;18.822;2023-01-05T06:00:45;3.78;;;3.35;;
53927;SDS011;39837;47.630;18.822;2023-01-05T06:03:29;3.38;;;3.05;;
53927;SDS011;39837;47.630;18.822;2023-01-05T06:06:13;2.88;;;2.70;;
53927;SDS011;39837;47.630;18.822;2023-01-05T06:08:57;20.92;;;3.60;;
53927;SDS011;39837;47.630;18.822;2023-01-05T06:11:41;3.28;;;2.83;;
53927;SDS011;39837;47.630;18.822;2023-01-05T06:14:25;2.55;;;2.42;;
53927;SDS011;39837;47.630;18.822;2023-01-05T06:17:09;3.35;;;3.05;;
53927;SDS011;39837;47.630;18.822;2023-01-05T06:19:53;4.30;;;3.58;;
53927;SDS011;39837;47.630;18.822;2023-01-05T06:22:37;4.13;;;2.75;;
53927;SDS011;39837;47.630;18.822;2023-01-05T06:25:21;4.18;;;3.92;;
53927;SDS011;39837;47.630;18.822;2023-01-05T06:28:05;7.38;;;6.28;;
53927;SDS011;39837;47.630;18.822;2023-01-05T06:30:48;14.25;;;7.82;;
53927;SDS011;39837;47.630;18.822;2023-01-05T06:33:32;35.22;;;9.85;;
53927;SDS011;39837;47.630;18.822;2023-01-05T06:36:17;31.27;;;16.45;;
53927;SDS011;39837;47.630;18.822;2023-01-05T06:39:01;7.13;;;4.45;;
53927;SDS011;39837;47.630;18.822;2023-01-05T06:41:45;4.82;;;3.70;;
53927;SDS011;39837;47.630;18.822;2023-01-05T06:44:29;3.80;;;3.50;;
53927;SDS011;39837;47.630;18.822;2023-01-05T06:47:14;4.70;;;3.35;;
53927;SDS011;39837;47.630;18.822;2023-01-05T06:49:58;3.30;;;2.67;;
53927;SDS011;39837;47.630;18.822;2023-01-05T06:52:41;2.55;;;2.45;;
53927;SDS011;39837;47.630;18.822;2023-01-05T06:55:25;3.22;;;3.08;;
53927;SDS011;39837;47.630;18.822;2023-01-05T06:58:09;2.67;;;2.55;;
53927;SDS011;39837;47.630;18.822;2023-01-05T07:00:54;4.05;;;3.28;;
53927;SDS011;39837;47.630;18.822;2023-01-05T07:03:38;2.97;;;2.78;;
53927;SDS011;39837;47.630;18.822;2023-01-05T07:06:22;3.85;;;2.70;;
53927;SDS011;39837;47.630;18.822;2023-01-05T07:09:06;1.98;;;1.88;;
53927;SDS011;39837;47.630;18.822;2023-01-05T07:11:50;3.03;;;2.83;;
53927;SDS011;39837;47.630;18.822;2023-01-05T07:14:34;2.92;;;2.75;;
53927;SDS011;39837;47.630;18.822;2023-01-05T07:17:18;2.72;;;2.63;;
53927;SDS011;39837;47.630;18.822;2023-01-05T07:20:05;2.20;;;2.10;;
53927;SDS011;39837;47.630;18.822;2023-01-05T07:22:50;4.05;;;2.55;;
53927;SDS011;39837;47.630;18.822;2023-01-05T07:25:34;2.85;;;2.65;;
53927;SDS011;39837;47.630;18.822;2023-01-05T07:28:18;2.70;;;2.58;;
53927;SDS011;39837;47.630;18.822;2023-01-05T07:31:03;2.55;;;2.45;;
53927;SDS011;39837;47.630;18.822;2023-01-05T07:33:49;2.33;;;2.22;;
53927;SDS011;39837;47.630;18.822;2023-01-05T07:36:34;2.45;;;2.33;;
53927;SDS011;39837;47.630;18.822;2023-01-05T07:39:18;2.10;;;2.03;;
53927;SDS011;39837;47.630;18.822;2023-01-05T07:42:02;3.42;;;2.63;;
53927;SDS011;39837;47.630;18.822;2023-01-05T07:44:46;2.65;;;2.45;;
53927;SDS011;39837;47.630;18.822;2023-01-05T07:47:30;2.53;;;2.42;;
53927;SDS011;39837;47.630;18.822;2023-01-05T08:09:16;3.42;;;3.15;;
53927;SDS011;39837;47.630;18.822;2023-01-05T08:12:09;3.53;;;3.33;;
53927;SDS011;39837;47.630;18.822;2023-01-05T08:14:53;3.22;;;2.97;;
53927;SDS011;39837;47.630;18.822;2023-01-05T08:17:37;2.92;;;2.72;;
53927;SDS011;39837;47.630;18.822;2023-01-05T08:20:23;4.40;;;4.05;;
53927;SDS011;39837;47.630;18.822;2023-01-05T08:23:07;3.33;;;3.13;;
53927;SDS011;39837;47.630;18.822;2023-01-05T08:25:51;2.60;;;2.50;;
53927;SDS011;39837;47.630;18.822;2023-01-05T08:28:35;2.88;;;2.75;;
53927;SDS011;39837;47.630;18.822;2023-01-05T08:31:21;4.30;;;3.83;;
53927;SDS011;39837;47.630;18.822;2023-01-05T08:34:07;3.67;;;3.38;;
53927;SDS011;39837;47.630;18.822;2023-01-05T08:36:51;4.03;;;3.72;;
53927;SDS011;39837;47.630;18.822;2023-01-05T08:39:35;3.65;;;3.42;;
53927;SDS011;39837;47.630;18.822;2023-01-05T08:42:19;7.57;;;3.92;;
53927;SDS011;39837;47.630;18.822;2023-01-05T08:45:03;5.43;;;4.22;;
53927;SDS011;39837;47.630;18.822;2023-01-05T08:47:47;3.13;;;2.95;;
53927;SDS011;39837;47.630;18.822;2023-01-05T08:50:38;5.00;;;3.38;;
53927;SDS011;39837;47.630;18.822;2023-01-05T08:53:23;6.75;;;3.08;;
53927;SDS011;39837;47.630;18.822;2023-01-05T08:56:06;2.92;;;2.72;;
53927;SDS011;39837;47.630;18.822;2023-01-05T08:58:53;2.10;;;2.00;;
53927;SDS011;39837;47.630;18.822;2023-01-05T09:01:41;4.30;;;3.17;;
53927;SDS011;39837;47.630;18.822;2023-01-05T09:04:25;2.83;;;2.67;;
53927;SDS011;39837;47.630;18.822;2023-01-05T09:07:10;4.18;;;3.00;;
53927;SDS011;39837;47.630;18.822;2023-01-05T09:09:54;3.17;;;2.88;;
53927;SDS011;39837;47.630;18.822;2023-01-05T09:12:38;2.90;;;2.70;;
53927;SDS011;39837;47.630;18.822;2023-01-05T09:15:22;2.83;;;2.63;;
53927;SDS011;39837;47.630;18.822;2023-01-05T09:18:05;3.75;;;3.53;;
53927;SDS011;39837;47.630;18.822;2023-01-05T09:20:56;3.50;;;3.30;;
53927;SDS011;39837;47.630;18.822;2023-01-05T09:23:40;4.32;;;3.90;;
53927;SDS011;39837;47.630;18.822;2023-01-05T09:26:25;4.72;;;4.10;;
53927;SDS011;39837;47.630;18.822;2023-01-05T09:29:09;4.63;;;4.25;;
53927;SDS011;39837;47.630;18.822;2023-01-05T09:31:54;6.33;;;5.00;;
53927;SDS011;39837;47.630;18.822;2023-01-05T09:34:38;5.70;;;4.93;;
53927;SDS011;39837;47.630;18.822;2023-01-05T09:37:22;13.90;;;3.92;;
53927;SDS011;39837;47.630;18.822;2023-01-05T09:40:06;4.13;;;3.72;;
53927;SDS011;39837;47.630;18.822;2023-01-05T09:42:50;4.78;;;3.38;;
53927;SDS011;39837;47.630;18.822;2023-01-05T09:45:35;3.92;;;3.20;;
53927;SDS011;39837;47.630;18.822;2023-01-05T09:48:19;2.58;;;2.47;;
53927;SDS011;39837;47.630;18.822;2023-01-05T09:51:04;2.95;;;2.80;;
53927;SDS011;39837;47.630;18.822;2023-01-05T09:53:49;6.85;;;4.72;;
53927;SDS011;39837;47.630;18.822;2023-01-05T09:56:35;3.50;;;3.33;;
53927;SDS011;39837;47.630;18.822;2023-01-05T09:59:32;3.05;;;2.70;;
53927;SDS011;39837;47.630;18.822;2023-01-05T10:05:16;3.25;;;3.03;;
53927;SDS011;39837;47.630;18.822;2023-01-05T10:08:06;2.80;;;2.60;;
53927;SDS011;39837;47.630;18.822;2023-01-05T10:11:01;6.68;;;3.28;;
53927;SDS011;39837;47.630;18.822;2023-01-05T10:14:13;2.50;;;2.40;;
53927;SDS011;39837;47.630;18.822;2023-01-05T10:16:59;3.15;;;2.40;;
53927;SDS011;39837;47.630;18.822;2023-01-05T10:19:43;2.97;;;2.20;;
53927;SDS011;39837;47.630;18.822;2023-01-05T10:25:37;2.42;;;2.22;;
53927;SDS011;39837;47.630;18.822;2023-01-05T10:40:25;2.53;;;1.80;;
53927;SDS011;39837;47.630;18.822;2023-01-05T10:46:05;2.30;;;2.13;;
53927;SDS011;39837;47.630;18.822;2023-01-05T10:48:51;2.03;;;1.92;;
53927;SDS011;39837;47.630;18.822;2023-01-05T10:51:35;2.03;;;1.92;;
53927;SDS011;39837;47.630;18.822;2023-01-05T10:54:23;2.13;;;2.03;;
53927;SDS011;39837;47.630;18.822;2023-01-05T11:00:21;3.05;;;2.85;;
53927;SDS011;39837;47.630;18.822;2023-01-05T11:03:28;1.83;;;1.73;;
53927;SDS011;39837;47.630;18.822;2023-01-05T11:06:23;2.80;;;2.60;;
53927;SDS011;39837;47.630;18.822;2023-01-05T11:11:58;1.80;;;1.77;;
53927;SDS011;39837;47.630;18.822;2023-01-05T11:14:46;4.28;;;3.97;;
53927;SDS011;39837;47.630;18.822;2023-01-05T11:17:32;5.25;;;3.55;;
53927;SDS011;39837;47.630;18.822;2023-01-05T11:20:16;4.43;;;4.03;;
53927;SDS011;39837;47.630;18.822;2023-01-05T11:23:00;5.05;;;3.28;;
53927;SDS011;39837;47.630;18.822;2023-01-05T11:25:44;5.20;;;3.38;;
53927;SDS011;39837;47.630;18.822;2023-01-05T11:28:28;2.28;;;2.17;;
53927;SDS011;39837;47.630;18.822;2023-01-05T11:31:13;1.30;;;1.30;;
53927;SDS011;39837;47.630;18.822;2023-01-05T11:33:57;6.07;;;5.43;;
53927;SDS011;39837;47.630;18.822;2023-01-05T11:36:42;3.05;;;2.85;;
53927;SDS011;39837;47.630;18.822;2023-01-05T11:39:40;3.55;;;3.25;;
53927;SDS011;39837;47.630;18.822;2023-01-05T11:42:40;3.83;;;3.45;;
53927;SDS011;39837;47.630;18.822;2023-01-05T11:45:46;1.48;;;1.48;;
53927;SDS011;39837;47.630;18.822;2023-01-05T11:48:36;2.45;;;2.35;;
53927;SDS011;39837;47.630;18.822;2023-01-05T11:51:32;2.05;;;1.95;;
53927;SDS011;39837;47.630;18.822;2023-01-05T11:54:30;3.70;;;1.92;;
53927;SDS011;39837;47.630;18.822;2023-01-05T11:57:19;2.38;;;2.28;;
53927;SDS011;39837;47.630;18.822;2023-01-05T12:00:04;1.45;;;1.45;;
53927;SDS011;39837;47.630;18.822;2023-01-05T12:06:45;1.40;;;1.40;;
53927;SDS011;39837;47.630;18.822;2023-01-05T12:09:30;1.70;;;1.70;;
53927;SDS011;39837;47.630;18.822;2023-01-05T12:12:35;3.13;;;2.72;;
53927;SDS011;39837;47.630;18.822;2023-01-05T12:15:28;4.05;;;2.67;;
53927;SDS011;39837;47.630;18.822;2023-01-05T12:18:27;2.10;;;2.00;;
53927;SDS011;39837;47.630;18.822;2023-01-05T12:21:22;1.90;;;1.80;;
53927;SDS011;39837;47.630;18.822;2023-01-05T12:30:12;2.15;;;2.05;;
53927;SDS011;39837;47.630;18.822;2023-01-05T12:42:29;1.30;;;1.30;;
53927;SDS011;39837;47.630;18.822;2023-01-05T12:51:57;7.38;;;2.00;;
53927;SDS011;39837;47.630;18.822;2023-01-05T12:57:50;1.00;;;1.00;;
53927;SDS011;39837;47.630;18.822;2023-01-05T13:00:43;1.75;;;1.48;;
53927;SDS011;39837;47.630;18.822;2023-01-05T13:03:35;1.77;;;1.77;;
53927;SDS011;39837;47.630;18.822;2023-01-05T13:06:30;1.85;;;1.77;;
53927;SDS011;39837;47.630;18.822;2023-01-05T13:09:19;1.35;;;1.35;;
53927;SDS011;39837;47.630;18.822;2023-01-05T13:12:08;3.60;;;1.33;;
53927;SDS011;39837;47.630;18.822;2023-01-05T13:15:39;1.90;;;1.80;;
53927;SDS011;39837;47.630;18.822;2023-01-05T13:18:21;1.38;;;1.38;;
53927;SDS011;39837;47.630;18.822;2023-01-05T13:21:07;1.45;;;1.45;;
53927;SDS011;39837;47.630;18.822;2023-01-05T13:23:53;9.52;;;1.92;;
53927;SDS011;39837;47.630;18.822;2023-01-05T13:26:39;1.10;;;1.10;;
53927;SDS011;39837;47.630;18.822;2023-01-05T13:29:25;2.25;;;1.48;;
53927;SDS011;39837;47.630;18.822;2023-01-05T13:42:01;1.55;;;1.50;;
53927;SDS011;39837;47.630;18.822;2023-01-05T13:54:41;0.98;;;0.98;;
53927;SDS011;39837;47.630;18.822;2023-01-05T13:57:37;1.50;;;1.50;;
53927;SDS011;39837;47.630;18.822;2023-01-05T14:03:20;1.23;;;1.23;;
53927;SDS011;39837;47.630;18.822;2023-01-05T14:06:25;2.60;;;2.40;;
53927;SDS011;39837;47.630;18.822;2023-01-05T14:09:15;4.63;;;2.88;;
53927;SDS011;39837;47.630;18.822;2023-01-05T14:17:56;1.58;;;1.48;;
53927;SDS011;39837;47.630;18.822;2023-01-05T14:26:13;1.42;;;1.42;;
53927;SDS011;39837;47.630;18.822;2023-01-05T14:28:57;1.45;;;1.45;;
53927;SDS011;39837;47.630;18.822;2023-01-05T14:31:41;1.98;;;1.92;;
53927;SDS011;39837;47.630;18.822;2023-01-05T14:34:26;2.58;;;2.42;;
53927;SDS011;39837;47.630;18.822;2023-01-05T14:37:22;1.25;;;1.23;;
53927;SDS011;39837;47.630;18.822;2023-01-05T14:40:23;4.28;;;2.00;;
53927;SDS011;39837;47.630;18.822;2023-01-05T14:46:10;1.80;;;1.73;;
53927;SDS011;39837;47.630;18.822;2023-01-05T14:49:05;2.33;;;2.13;;
53927;SDS011;39837;47.630;18.822;2023-01-05T14:51:52;1.45;;;1.45;;
53927;SDS011;39837;47.630;18.822;2023-01-05T15:03:06;1.75;;;1.65;;
53927;SDS011;39837;47.630;18.822;2023-01-05T15:12:18;1.67;;;1.63;;
53927;SDS011;39837;47.630;18.822;2023-01-05T15:30:39;1.80;;;1.80;;
53927;SDS011;39837;47.630;18.822;2023-01-05T15:33:29;1.67;;;1.58;;
53927;SDS011;39837;47.630;18.822;2023-01-05T15:36:33;1.90;;;1.85;;
53927;SDS011;39837;47.630;18.822;2023-01-05T15:45:05;2.47;;;1.92;;
53927;SDS011;39837;47.630;18.822;2023-01-05T15:47:50;1.17;;;1.17;;
53927;SDS011;39837;47.630;18.822;2023-01-05T15:53:40;1.98;;;1.30;;
53927;SDS011;39837;47.630;18.822;2023-01-05T15:59:35;2.60;;;2.13;;
53927;SDS011;39837;47.630;18.822;2023-01-05T16:02:27;7.80;;;2.65;;
53927;SDS011;39837;47.630;18.822;2023-01-05T16:08:10;2.55;;;1.75;;
53927;SDS011;39837;47.630;18.822;2023-01-05T16:10:58;1.70;;;1.35;;
53927;SDS011;39837;47.630;18.822;2023-01-05T16:13:47;1.08;;;1.08;;
53927;SDS011;39837;47.630;18.822;2023-01-05T16:16:36;1.48;;;1.48;;
53927;SDS011;39837;47.630;18.822;2023-01-05T16:22:20;1.00;;;1.00;;
53927;SDS011;39837;47.630;18.822;2023-01-05T16:27:59;1.55;;;1.55;;
53927;SDS011;39837;47.630;18.822;2023-01-05T16:30:46;1.75;;;1.65;;
53927;SDS011;39837;47.630;18.822;2023-01-05T16:33:32;1.48;;;1.38;;
53927;SDS011;39837;47.630;18.822;2023-01-05T16:36:22;1.30;;;1.30;;
53927;SDS011;39837;47.630;18.822;2023-01-05T16:39:12;1.38;;;1.30;;
53927;SDS011;39837;47.630;18.822;2023-01-05T16:42:15;1.95;;;1.63;;
53927;SDS011;39837;47.630;18.822;2023-01-05T16:45:25;1.15;;;1.15;;
53927;SDS011;39837;47.630;18.822;2023-01-05T16:48:33;7.68;;;1.25;;
53927;SDS011;39837;47.630;18.822;2023-01-05T16:56:58;1.52;;;1.52;;
53927;SDS011;39837;47.630;18.822;2023-01-05T16:59:46;1.92;;;1.70;;
53927;SDS011;39837;47.630;18.822;2023-01-05T17:02:47;1.55;;;1.45;;
53927;SDS011;39837;47.630;18.822;2023-01-05T17:05:32;4.45;;;1.88;;
53927;SDS011;39837;47.630;18.822;2023-01-05T17:08:20;2.10;;;1.80;;
53927;SDS011;39837;47.630;18.822;2023-01-05T17:11:06;1.17;;;1.17;;
53927;SDS011;39837;47.630;18.822;2023-01-05T17:13:51;1.20;;;1.20;;
53927;SDS011;39837;47.630;18.822;2023-01-05T17:16:36;1.25;;;1.25;;
53927;SDS011;39837;47.630;18.822;2023-01-05T17:19:21;1.55;;;1.45;;
53927;SDS011;39837;47.630;18.822;2023-01-05T17:22:05;4.03;;;2.25;;
53927;SDS011;39837;47.630;18.822;2023-01-05T17:24:50;2.13;;;2.03;;
53927;SDS011;39837;47.630;18.822;2023-01-05T17:27:34;1.65;;;1.65;;
53927;SDS011;39837;47.630;18.822;2023-01-05T17:30:20;2.08;;;1.98;;
53927;SDS011;39837;47.630;18.822;2023-01-05T17:33:04;2.55;;;2.45;;
53927;SDS011;39837;47.630;18.822;2023-01-05T17:35:49;6.35;;;3.15;;
53927;SDS011;39837;47.630;18.822;2023-01-05T17:38:33;13.73;;;6.35;;
53927;SDS011;39837;47.630;18.822;2023-01-05T17:41:17;8.02;;;4.60;;
53927;SDS011;39837;47.630;18.822;2023-01-05T17:44:01;3.78;;;2.53;;
53927;SDS011;39837;47.630;18.822;2023-01-05T17:46:45;12.18;;;3.42;;
53927;SDS011;39837;47.630;18.822;2023-01-05T17:49:30;2.72;;;1.65;;
53927;SDS011;39837;47.630;18.822;2023-01-05T17:52:15;2.90;;;2.45;;
53927;SDS011;39837;47.630;18.822;2023-01-05T17:55:00;1.85;;;1.75;;
53927;SDS011;39837;47.630;18.822;2023-01-05T17:57:44;1.67;;;1.63;;
53927;SDS011;39837;47.630;18.822;2023-01-05T18:00:29;1.60;;;1.55;;
53927;SDS011;39837;47.630;18.822;2023-01-05T18:03:22;1.60;;;1.52;;
53927;SDS011;39837;47.630;18.822;2023-01-05T18:06:06;1.63;;;1.52;;
53927;SDS011;39837;47.630;18.822;2023-01-05T18:08:52;5.00;;;1.52;;
53927;SDS011;39837;47.630;18.822;2023-01-05T18:11:36;3.50;;;3.22;;
53927;SDS011;39837;47.630;18.822;2023-01-05T18:14:20;3.90;;;2.65;;
53927;SDS011;39837;47.630;18.822;2023-01-05T18:17:04;1.20;;;1.20;;
53927;SDS011;39837;47.630;18.822;2023-01-05T18:19:48;1.30;;;1.30;;
53927;SDS011;39837;47.630;18.822;2023-01-05T18:22:33;1.67;;;1.65;;
53927;SDS011;39837;47.630;18.822;2023-01-05T18:25:17;1.73;;;1.73;;
53927;SDS011;39837;47.630;18.822;2023-01-05T18:28:02;1.67;;;1.63;;
53927;SDS011;39837;47.630;18.822;2023-01-05T18:30:46;1.60;;;1.50;;
53927;SDS011;39837;47.630;18.822;2023-01-05T18:33:30;1.75;;;1.67;;
53927;SDS011;39837;47.630;18.822;2023-01-05T18:36:14;5.68;;;2.45;;
53927;SDS011;39837;47.630;18.822;2023-01-05T18:38:59;1.13;;;1.13;;
53927;SDS011;39837;47.630;18.822;2023-01-05T18:41:43;1.10;;;1.10;;
53927;SDS011;39837;47.630;18.822;2023-01-05T18:44:27;1.77;;;1.75;;
53927;SDS011;39837;47.630;18.822;2023-01-05T18:47:12;1.73;;;1.65;;
53927;SDS011;39837;47.630;18.822;2023-01-05T18:49:56;1.48;;;1.33;;
53927;SDS011;39837;47.630;18.822;2023-01-05T18:52:41;1.10;;;1.10;;
53927;SDS011;39837;47.630;18.822;2023-01-05T18:55:25;1.10;;;1.05;;
53927;SDS011;39837;47.630;18.822;2023-01-05T18:58:10;1.80;;;1.77;;
53927;SDS011;39837;47.630;18.822;2023-01-05T19:00:54;1.73;;;1.63;;
53927;SDS011;39837;47.630;18.822;2023-01-05T19:03:39;4.80;;;2.10;;
53927;SDS011;39837;47.630;18.822;2023-01-05T19:06:24;1.33;;;1.33;;
53927;SDS011;39837;47.630;18.822;2023-01-05T19:09:09;5.82;;;1.65;;
53927;SDS011;39837;47.630;18.822;2023-01-05T19:11:54;1.95;;;1.85;;
53927;SDS011;39837;47.630;18.822;2023-01-05T19:14:38;1.00;;;1.00;;
53927;SDS011;39837;47.630;18.822;2023-01-05T19:17:22;1.23;;;1.23;;
53927;SDS011;39837;47.630;18.822;2023-01-05T19:20:06;0.95;;;0.95;;
53927;SDS011;39837;47.630;18.822;2023-01-05T19:22:50;1.35;;;1.35;;
53927;SDS011;39837;47.630;18.822;2023-01-05T19:25:35;3.33;;;1.48;;
53927;SDS011;39837;47.630;18.822;2023-01-05T19:28:19;1.70;;;1.70;;
53927;SDS011;39837;47.630;18.822;2023-01-05T19:31:07;2.95;;;2.42;;
53927;SDS011;39837;47.630;18.822;2023-01-05T19:33:53;1.48;;;1.48;;
53927;SDS011;39837;47.630;18.822;2023-01-05T19:36:38;1.48;;;1.38;;
53927;SDS011;39837;47.630;18.822;2023-01-05T19:39:22;2.08;;;1.63;;
53927;SDS011;39837;47.630;18.822;2023-01-05T19:42:07;1.20;;;1.20;;
53927;SDS011;39837;47.630;18.822;2023-01-05T19:44:51;1.75;;;1.70;;
53927;SDS011;39837;47.630;18.822;2023-01-05T19:47:35;1.30;;;1.30;;
53927;SDS011;39837;47.630;18.822;2023-01-05T19:50:22;1.15;;;1.15;;
53927;SDS011;39837;47.630;18.822;2023-01-05T19:53:06;1.20;;;1.20;;